sensor_id;sensor_type;location;lat;lon;timestamp;temperature;humidity
53599;DHT22;39485;45.702;11.364;2023-03-23T00:01:05;10.90;99.90
53599;DHT22;39485;45.702;11.364;2023-03-23T00:03:32;10.90;99.90
53599;DHT22;39485;45.702;11.364;2023-03-23T00:05:58;10.90;99.90
53599;DHT22;39485;45.702;11.364;2023-03-23T00:08:35;10.80;99.90
53599;DHT22;39485;45.702;11.364;2023-03-23T00:11:15;10.80;99.90
53599;DHT22;39485;45.702;11.364;2023-03-23T00:13:42;10.80;99.90
53599;DHT22;39485;45.702;11.364;2023-03-23T00:16:09;10.80;99.90
53599;DHT22;39485;45.702;11.364;2023-03-23T00:18:50;10.80;99.90
53599;DHT22;39485;45.702;11.364;2023-03-23T00:21:18;10.80;99.90
53599;DHT22;39485;45.702;11.364;2023-03-23T00:23:44;10.80;99.90
53599;DHT22;39485;45.702;11.364;2023-03-23T00:26:10;10.70;99.90
53599;DHT22;39485;45.702;11.364;2023-03-23T00:28:37;10.70;99.90
53599;DHT22;39485;45.702;11.364;2023-03-23T00:31:06;10.70;99.90
53599;DHT22;39485;45.702;11.364;2023-03-23T00:33:34;10.60;99.90
53599;DHT22;39485;45.702;11.364;2023-03-23T00:36:13;10.70;99.90
53599;DHT22;39485;45.702;11.364;2023-03-23T00:38:40;10.60;99.90
53599;DHT22;39485;45.702;11.364;2023-03-23T00:41:07;10.60;99.90
53599;DHT22;39485;45.702;11.364;2023-03-23T00:43:33;10.60;99.90
53599;DHT22;39485;45.702;11.364;2023-03-23T00:46:03;10.60;99.90
53599;DHT22;39485;45.702;11.364;2023-03-23T00:48:34;10.60;99.90
53599;DHT22;39485;45.702;11.364;2023-03-23T00:51:01;10.60;99.90
53599;DHT22;39485;45.702;11.364;2023-03-23T00:53:32;10.60;99.90
53599;DHT22;39485;45.702;11.364;2023-03-23T00:55:58;10.60;99.90
53599;DHT22;39485;45.702;11.364;2023-03-23T00:58:24;10.60;99.90
53599;DHT22;39485;45.702;11.364;2023-03-23T01:00:50;10.60;99.90
53599;DHT22;39485;45.702;11.364;2023-03-23T01:03:15;10.60;99.90
53599;DHT22;39485;45.702;11.364;2023-03-23T01:05:44;10.60;99.90
53599;DHT22;39485;45.702;11.364;2023-03-23T01:08:13;10.50;99.90
53599;DHT22;39485;45.702;11.364;2023-03-23T01:10:39;10.50;99.90
53599;DHT22;39485;45.702;11.364;2023-03-23T01:13:07;10.50;99.90
53599;DHT22;39485;45.702;11.364;2023-03-23T01:15:33;10.50;99.90
53599;DHT22;39485;45.702;11.364;2023-03-23T01:17:59;10.50;99.90
53599;DHT22;39485;45.702;11.364;2023-03-23T01:20:25;10.50;99.90
53599;DHT22;39485;45.702;11.364;2023-03-23T01:22:57;10.50;99.90
53599;DHT22;39485;45.702;11.364;2023-03-23T01:25:29;10.50;99.90
53599;DHT22;39485;45.702;11.364;2023-03-23T01:27:56;10.40;99.90
53599;DHT22;39485;45.702;11.364;2023-03-23T01:30:22;10.40;99.90
53599;DHT22;39485;45.702;11.364;2023-03-23T01:32:49;10.40;99.90
53599;DHT22;39485;45.702;11.364;2023-03-23T01:35:15;10.40;99.90
53599;DHT22;39485;45.702;11.364;2023-03-23T01:37:42;10.40;99.90
53599;DHT22;39485;45.702;11.364;2023-03-23T01:40:08;10.30;99.90
53599;DHT22;39485;45.702;11.364;2023-03-23T01:42:36;10.30;99.90
53599;DHT22;39485;45.702;11.364;2023-03-23T01:50:22;10.30;99.90
53599;DHT22;39485;45.702;11.364;2023-03-23T01:52:50;10.30;99.90
53599;DHT22;39485;45.702;11.364;2023-03-23T01:55:18;10.30;99.90
53599;DHT22;39485;45.702;11.364;2023-03-23T01:57:45;10.30;99.90
53599;DHT22;39485;45.702;11.364;2023-03-23T02:00:11;10.20;99.90
53599;DHT22;39485;45.702;11.364;2023-03-23T02:02:44;10.30;99.90
53599;DHT22;39485;45.702;11.364;2023-03-23T02:05:18;10.20;99.90
53599;DHT22;39485;45.702;11.364;2023-03-23T02:07:45;10.20;99.90
53599;DHT22;39485;45.702;11.364;2023-03-23T02:10:11;10.10;99.90
53599;DHT22;39485;45.702;11.364;2023-03-23T02:12:37;10.10;99.90
53599;DHT22;39485;45.702;11.364;2023-03-23T02:15:03;10.10;99.90
53599;DHT22;39485;45.702;11.364;2023-03-23T02:17:57;10.10;99.90
53599;DHT22;39485;45.702;11.364;2023-03-23T02:21:46;10.10;99.90
53599;DHT22;39485;45.702;11.364;2023-03-23T02:34:19;10.10;99.90
53599;DHT22;39485;45.702;11.364;2023-03-23T02:37:03;10.10;99.90
53599;DHT22;39485;45.702;11.364;2023-03-23T02:42:09;10.10;99.90
53599;DHT22;39485;45.702;11.364;2023-03-23T02:44:37;10.10;99.90
53599;DHT22;39485;45.702;11.364;2023-03-23T02:47:07;10.10;99.90
53599;DHT22;39485;45.702;11.364;2023-03-23T02:49:36;10.10;99.90
53599;DHT22;39485;45.702;11.364;2023-03-23T02:52:12;10.10;99.90
53599;DHT22;39485;45.702;11.364;2023-03-23T02:54:42;10.10;99.90
53599;DHT22;39485;45.702;11.364;2023-03-23T02:57:10;10.00;99.90
53599;DHT22;39485;45.702;11.364;2023-03-23T02:59:36;10.00;99.90
53599;DHT22;39485;45.702;11.364;2023-03-23T03:02:23;10.00;99.90
53599;DHT22;39485;45.702;11.364;2023-03-23T03:10:26;10.00;99.90
53599;DHT22;39485;45.702;11.364;2023-03-23T03:13:01;9.90;99.90
53599;DHT22;39485;45.702;11.364;2023-03-23T03:15:48;10.00;99.90
53599;DHT22;39485;45.702;11.364;2023-03-23T03:18:20;10.00;99.90
53599;DHT22;39485;45.702;11.364;2023-03-23T03:20:53;10.00;99.90
53599;DHT22;39485;45.702;11.364;2023-03-23T03:23:23;9.90;99.90
53599;DHT22;39485;45.702;11.364;2023-03-23T03:25:50;9.90;99.90
53599;DHT22;39485;45.702;11.364;2023-03-23T03:28:19;9.90;99.90
53599;DHT22;39485;45.702;11.364;2023-03-23T03:30:51;9.90;99.90
53599;DHT22;39485;45.702;11.364;2023-03-23T03:33:19;9.90;99.90
53599;DHT22;39485;45.702;11.364;2023-03-23T03:35:46;9.90;99.90
53599;DHT22;39485;45.702;11.364;2023-03-23T03:38:13;9.90;99.90
53599;DHT22;39485;45.702;11.364;2023-03-23T03:40:39;9.90;99.90
53599;DHT22;39485;45.702;11.364;2023-03-23T03:43:05;9.80;99.90
53599;DHT22;39485;45.702;11.364;2023-03-23T03:45:32;9.90;99.90
53599;DHT22;39485;45.702;11.364;2023-03-23T03:47:58;9.90;99.90
53599;DHT22;39485;45.702;11.364;2023-03-23T03:50:23;9.80;99.90
53599;DHT22;39485;45.702;11.364;2023-03-23T03:52:49;9.80;99.90
53599;DHT22;39485;45.702;11.364;2023-03-23T03:55:15;9.80;99.90
53599;DHT22;39485;45.702;11.364;2023-03-23T03:57:42;9.80;99.90
53599;DHT22;39485;45.702;11.364;2023-03-23T04:00:09;9.80;99.90
53599;DHT22;39485;45.702;11.364;2023-03-23T04:02:49;9.80;99.90
53599;DHT22;39485;45.702;11.364;2023-03-23T04:05:20;9.80;99.90
53599;DHT22;39485;45.702;11.364;2023-03-23T04:07:46;9.80;99.90
53599;DHT22;39485;45.702;11.364;2023-03-23T04:10:15;9.80;99.90
53599;DHT22;39485;45.702;11.364;2023-03-23T04:12:40;9.70;99.90
53599;DHT22;39485;45.702;11.364;2023-03-23T04:15:07;9.70;99.90
53599;DHT22;39485;45.702;11.364;2023-03-23T04:17:34;9.80;99.90
53599;DHT22;39485;45.702;11.364;2023-03-23T04:20:00;9.80;99.90
53599;DHT22;39485;45.702;11.364;2023-03-23T04:22:27;9.80;99.90
53599;DHT22;39485;45.702;11.364;2023-03-23T04:24:59;9.80;99.90
53599;DHT22;39485;45.702;11.364;2023-03-23T04:27:27;9.80;99.90
53599;DHT22;39485;45.702;11.364;2023-03-23T04:29:56;9.80;99.90
53599;DHT22;39485;45.702;11.364;2023-03-23T04:32:24;9.80;99.90
53599;DHT22;39485;45.702;11.364;2023-03-23T04:34:54;9.80;99.90
53599;DHT22;39485;45.702;11.364;2023-03-23T04:37:20;9.80;99.90
53599;DHT22;39485;45.702;11.364;2023-03-23T04:39:46;9.80;99.90
53599;DHT22;39485;45.702;11.364;2023-03-23T04:42:11;9.80;99.90
53599;DHT22;39485;45.702;11.364;2023-03-23T04:44:39;9.80;99.90
53599;DHT22;39485;45.702;11.364;2023-03-23T04:47:04;9.80;99.90
53599;DHT22;39485;45.702;11.364;2023-03-23T04:49:34;9.80;99.90
53599;DHT22;39485;45.702;11.364;2023-03-23T04:52:01;9.80;99.90
53599;DHT22;39485;45.702;11.364;2023-03-23T04:54:26;9.80;99.90
53599;DHT22;39485;45.702;11.364;2023-03-23T04:56:54;9.80;99.90
53599;DHT22;39485;45.702;11.364;2023-03-23T04:59:20;9.80;99.90
53599;DHT22;39485;45.702;11.364;2023-03-23T05:01:46;9.80;99.90
53599;DHT22;39485;45.702;11.364;2023-03-23T05:04:12;9.80;99.90
53599;DHT22;39485;45.702;11.364;2023-03-23T05:06:42;9.80;99.90
53599;DHT22;39485;45.702;11.364;2023-03-23T05:09:09;9.80;99.90
53599;DHT22;39485;45.702;11.364;2023-03-23T05:11:35;9.80;99.90
53599;DHT22;39485;45.702;11.364;2023-03-23T05:14:03;9.80;99.90
53599;DHT22;39485;45.702;11.364;2023-03-23T05:16:29;9.80;99.90
53599;DHT22;39485;45.702;11.364;2023-03-23T05:18:55;9.80;99.90
53599;DHT22;39485;45.702;11.364;2023-03-23T05:21:23;9.80;99.90
53599;DHT22;39485;45.702;11.364;2023-03-23T05:23:48;9.80;99.90
53599;DHT22;39485;45.702;11.364;2023-03-23T05:26:21;9.80;99.90
53599;DHT22;39485;45.702;11.364;2023-03-23T05:28:47;9.80;99.90
53599;DHT22;39485;45.702;11.364;2023-03-23T05:31:13;9.80;99.90
53599;DHT22;39485;45.702;11.364;2023-03-23T05:33:39;9.80;99.90
53599;DHT22;39485;45.702;11.364;2023-03-23T05:36:05;9.80;99.90
53599;DHT22;39485;45.702;11.364;2023-03-23T05:38:33;9.80;99.90
53599;DHT22;39485;45.702;11.364;2023-03-23T05:40:59;9.90;99.90
53599;DHT22;39485;45.702;11.364;2023-03-23T05:43:28;9.90;99.90
53599;DHT22;39485;45.702;11.364;2023-03-23T05:45:53;9.90;99.90
53599;DHT22;39485;45.702;11.364;2023-03-23T05:48:19;9.90;99.90
53599;DHT22;39485;45.702;11.364;2023-03-23T05:50:45;9.90;99.90
53599;DHT22;39485;45.702;11.364;2023-03-23T05:53:11;10.00;99.90
53599;DHT22;39485;45.702;11.364;2023-03-23T05:55:37;10.00;99.90
53599;DHT22;39485;45.702;11.364;2023-03-23T05:58:03;10.00;99.90
53599;DHT22;39485;45.702;11.364;2023-03-23T06:00:29;10.00;99.90
53599;DHT22;39485;45.702;11.364;2023-03-23T06:02:56;10.00;99.90
53599;DHT22;39485;45.702;11.364;2023-03-23T06:05:22;10.10;99.90
53599;DHT22;39485;45.702;11.364;2023-03-23T06:07:49;10.10;99.90
53599;DHT22;39485;45.702;11.364;2023-03-23T06:10:15;10.10;99.90
53599;DHT22;39485;45.702;11.364;2023-03-23T06:12:41;10.20;99.90
53599;DHT22;39485;45.702;11.364;2023-03-23T06:15:09;10.20;99.90
53599;DHT22;39485;45.702;11.364;2023-03-23T06:17:36;10.20;99.90
53599;DHT22;39485;45.702;11.364;2023-03-23T06:20:05;10.20;99.90
53599;DHT22;39485;45.702;11.364;2023-03-23T06:22:39;10.30;99.90
53599;DHT22;39485;45.702;11.364;2023-03-23T06:25:09;10.30;99.90
53599;DHT22;39485;45.702;11.364;2023-03-23T06:27:36;10.40;99.90
53599;DHT22;39485;45.702;11.364;2023-03-23T06:30:03;10.40;99.90
53599;DHT22;39485;45.702;11.364;2023-03-23T06:32:30;10.40;99.90
53599;DHT22;39485;45.702;11.364;2023-03-23T06:34:56;10.40;99.90
53599;DHT22;39485;45.702;11.364;2023-03-23T06:37:23;10.40;99.90
53599;DHT22;39485;45.702;11.364;2023-03-23T06:39:50;10.40;99.90
53599;DHT22;39485;45.702;11.364;2023-03-23T06:42:17;10.40;99.90
53599;DHT22;39485;45.702;11.364;2023-03-23T06:44:43;10.40;99.90
53599;DHT22;39485;45.702;11.364;2023-03-23T06:47:09;10.50;99.90
53599;DHT22;39485;45.702;11.364;2023-03-23T06:49:34;10.50;99.90
53599;DHT22;39485;45.702;11.364;2023-03-23T06:52:00;10.60;99.90
53599;DHT22;39485;45.702;11.364;2023-03-23T06:54:29;10.60;99.90
53599;DHT22;39485;45.702;11.364;2023-03-23T06:56:55;10.70;99.90
53599;DHT22;39485;45.702;11.364;2023-03-23T06:59:21;10.80;99.90
53599;DHT22;39485;45.702;11.364;2023-03-23T07:01:46;10.80;99.90
53599;DHT22;39485;45.702;11.364;2023-03-23T07:04:14;10.90;99.90
53599;DHT22;39485;45.702;11.364;2023-03-23T07:06:40;11.00;99.90
53599;DHT22;39485;45.702;11.364;2023-03-23T07:09:05;11.10;99.90
53599;DHT22;39485;45.702;11.364;2023-03-23T07:11:32;11.10;99.90
53599;DHT22;39485;45.702;11.364;2023-03-23T07:13:57;11.20;99.90
53599;DHT22;39485;45.702;11.364;2023-03-23T07:16:23;11.30;99.90
53599;DHT22;39485;45.702;11.364;2023-03-23T07:18:48;11.40;99.90
53599;DHT22;39485;45.702;11.364;2023-03-23T07:21:15;11.40;99.90
53599;DHT22;39485;45.702;11.364;2023-03-23T07:23:41;11.50;99.90
53599;DHT22;39485;45.702;11.364;2023-03-23T07:26:07;11.60;99.90
53599;DHT22;39485;45.702;11.364;2023-03-23T07:28:33;11.60;99.90
53599;DHT22;39485;45.702;11.364;2023-03-23T07:30:58;11.60;99.90
53599;DHT22;39485;45.702;11.364;2023-03-23T07:33:24;11.70;99.90
53599;DHT22;39485;45.702;11.364;2023-03-23T07:35:50;11.70;99.90
53599;DHT22;39485;45.702;11.364;2023-03-23T07:38:15;11.80;99.90
53599;DHT22;39485;45.702;11.364;2023-03-23T07:40:41;11.90;99.90
53599;DHT22;39485;45.702;11.364;2023-03-23T07:43:07;11.90;99.90
53599;DHT22;39485;45.702;11.364;2023-03-23T07:45:33;12.00;99.90
53599;DHT22;39485;45.702;11.364;2023-03-23T07:47:59;12.10;99.90
53599;DHT22;39485;45.702;11.364;2023-03-23T07:50:25;12.20;99.90
53599;DHT22;39485;45.702;11.364;2023-03-23T07:52:54;12.20;99.90
53599;DHT22;39485;45.702;11.364;2023-03-23T07:55:20;12.40;99.90
53599;DHT22;39485;45.702;11.364;2023-03-23T07:57:49;12.60;99.90
53599;DHT22;39485;45.702;11.364;2023-03-23T08:00:18;12.70;99.90
53599;DHT22;39485;45.702;11.364;2023-03-23T08:02:52;12.80;99.90
53599;DHT22;39485;45.702;11.364;2023-03-23T08:05:19;12.90;99.90
53599;DHT22;39485;45.702;11.364;2023-03-23T08:07:46;12.90;99.90
53599;DHT22;39485;45.702;11.364;2023-03-23T08:10:13;13.00;99.90
53599;DHT22;39485;45.702;11.364;2023-03-23T08:12:42;13.00;99.90
53599;DHT22;39485;45.702;11.364;2023-03-23T08:15:10;13.10;99.90
53599;DHT22;39485;45.702;11.364;2023-03-23T08:17:39;13.20;99.90
53599;DHT22;39485;45.702;11.364;2023-03-23T08:20:05;13.20;99.90
53599;DHT22;39485;45.702;11.364;2023-03-23T08:22:39;13.20;99.90
53599;DHT22;39485;45.702;11.364;2023-03-23T08:25:06;13.30;99.90
53599;DHT22;39485;45.702;11.364;2023-03-23T08:27:33;13.30;99.90
53599;DHT22;39485;45.702;11.364;2023-03-23T08:29:58;13.40;99.90
53599;DHT22;39485;45.702;11.364;2023-03-23T08:32:25;13.50;99.90
53599;DHT22;39485;45.702;11.364;2023-03-23T08:34:51;13.60;99.90
53599;DHT22;39485;45.702;11.364;2023-03-23T08:37:17;13.80;99.90
53599;DHT22;39485;45.702;11.364;2023-03-23T08:39:43;13.90;99.90
53599;DHT22;39485;45.702;11.364;2023-03-23T08:42:09;14.00;99.90
53599;DHT22;39485;45.702;11.364;2023-03-23T08:44:35;14.20;99.90
53599;DHT22;39485;45.702;11.364;2023-03-23T08:47:01;14.30;99.90
53599;DHT22;39485;45.702;11.364;2023-03-23T09:54:18;16.00;99.90
53599;DHT22;39485;45.702;11.364;2023-03-23T09:56:45;16.00;99.90
53599;DHT22;39485;45.702;11.364;2023-03-23T09:59:41;16.10;99.90
53599;DHT22;39485;45.702;11.364;2023-03-23T10:02:32;16.10;99.90
53599;DHT22;39485;45.702;11.364;2023-03-23T10:05:35;16.30;99.90
53599;DHT22;39485;45.702;11.364;2023-03-23T10:08:11;16.30;99.90
53599;DHT22;39485;45.702;11.364;2023-03-23T10:16:22;16.50;99.90
53599;DHT22;39485;45.702;11.364;2023-03-23T10:21:22;16.50;99.90
53599;DHT22;39485;45.702;11.364;2023-03-23T10:31:45;17.00;99.90
53599;DHT22;39485;45.702;11.364;2023-03-23T10:34:31;17.10;99.90
53599;DHT22;39485;45.702;11.364;2023-03-23T10:37:10;17.10;99.90
53599;DHT22;39485;45.702;11.364;2023-03-23T10:39:45;17.20;99.90
53599;DHT22;39485;45.702;11.364;2023-03-23T10:42:11;17.20;99.90
53599;DHT22;39485;45.702;11.364;2023-03-23T10:44:37;17.40;99.70
53599;DHT22;39485;45.702;11.364;2023-03-23T10:47:07;17.50;99.30
53599;DHT22;39485;45.702;11.364;2023-03-23T10:49:53;17.60;98.70
53599;DHT22;39485;45.702;11.364;2023-03-23T10:52:41;17.70;97.70
53599;DHT22;39485;45.702;11.364;2023-03-23T10:55:18;17.70;97.30
53599;DHT22;39485;45.702;11.364;2023-03-23T10:57:59;17.70;96.40
53599;DHT22;39485;45.702;11.364;2023-03-23T11:00:27;17.60;96.50
53599;DHT22;39485;45.702;11.364;2023-03-23T11:03:18;17.60;96.60
53599;DHT22;39485;45.702;11.364;2023-03-23T11:05:59;17.60;96.80
53599;DHT22;39485;45.702;11.364;2023-03-23T11:08:27;17.60;97.30
53599;DHT22;39485;45.702;11.364;2023-03-23T11:10:58;17.60;97.40
53599;DHT22;39485;45.702;11.364;2023-03-23T11:13:31;17.70;97.40
53599;DHT22;39485;45.702;11.364;2023-03-23T11:15:57;17.80;97.30
53599;DHT22;39485;45.702;11.364;2023-03-23T11:18:41;17.90;96.90
53599;DHT22;39485;45.702;11.364;2023-03-23T11:21:11;18.10;97.50
53599;DHT22;39485;45.702;11.364;2023-03-23T11:23:41;18.10;96.60
53599;DHT22;39485;45.702;11.364;2023-03-23T11:26:24;18.20;96.50
53599;DHT22;39485;45.702;11.364;2023-03-23T11:31:45;18.30;95.70
53599;DHT22;39485;45.702;11.364;2023-03-23T11:34:21;18.20;96.40
53599;DHT22;39485;45.702;11.364;2023-03-23T11:40:00;18.20;97.10
53599;DHT22;39485;45.702;11.364;2023-03-23T11:42:42;18.30;97.40
53599;DHT22;39485;45.702;11.364;2023-03-23T11:45:21;18.30;97.50
53599;DHT22;39485;45.702;11.364;2023-03-23T11:50:32;18.30;97.30
53599;DHT22;39485;45.702;11.364;2023-03-23T11:53:34;18.20;97.70
53599;DHT22;39485;45.702;11.364;2023-03-23T11:58:44;18.00;98.00
53599;DHT22;39485;45.702;11.364;2023-03-23T12:01:19;17.90;97.80
53599;DHT22;39485;45.702;11.364;2023-03-23T12:10:12;17.80;99.30
53599;DHT22;39485;45.702;11.364;2023-03-23T12:14:50;17.80;99.40
53599;DHT22;39485;45.702;11.364;2023-03-23T12:17:29;17.80;99.10
53599;DHT22;39485;45.702;11.364;2023-03-23T12:31:21;18.00;99.90
53599;DHT22;39485;45.702;11.364;2023-03-23T12:33:59;18.10;99.60
53599;DHT22;39485;45.702;11.364;2023-03-23T12:36:45;18.10;99.60
53599;DHT22;39485;45.702;11.364;2023-03-23T12:39:43;18.10;99.50
53599;DHT22;39485;45.702;11.364;2023-03-23T12:42:33;18.20;99.00
53599;DHT22;39485;45.702;11.364;2023-03-23T12:48:02;18.10;99.00
53599;DHT22;39485;45.702;11.364;2023-03-23T12:50:38;18.20;98.80
53599;DHT22;39485;45.702;11.364;2023-03-23T12:53:22;18.20;98.90
53599;DHT22;39485;45.702;11.364;2023-03-23T12:56:16;18.20;97.60
53599;DHT22;39485;45.702;11.364;2023-03-23T12:58:49;18.20;97.80
53599;DHT22;39485;45.702;11.364;2023-03-23T13:06:42;18.30;98.30
53599;DHT22;39485;45.702;11.364;2023-03-23T13:09:16;18.30;98.40
53599;DHT22;39485;45.702;11.364;2023-03-23T13:11:43;18.30;98.60
53599;DHT22;39485;45.702;11.364;2023-03-23T13:14:30;18.40;97.80
53599;DHT22;39485;45.702;11.364;2023-03-23T13:19:59;18.50;97.40
53599;DHT22;39485;45.702;11.364;2023-03-23T13:22:35;18.50;97.10
53599;DHT22;39485;45.702;11.364;2023-03-23T13:25:08;18.50;96.60
53599;DHT22;39485;45.702;11.364;2023-03-23T13:27:34;18.60;96.30
53599;DHT22;39485;45.702;11.364;2023-03-23T13:30:01;18.60;95.70
53599;DHT22;39485;45.702;11.364;2023-03-23T13:32:35;18.60;95.70
53599;DHT22;39485;45.702;11.364;2023-03-23T13:35:03;18.60;95.30
53599;DHT22;39485;45.702;11.364;2023-03-23T13:37:31;18.60;95.30
53599;DHT22;39485;45.702;11.364;2023-03-23T13:40:29;18.60;95.30
53599;DHT22;39485;45.702;11.364;2023-03-23T13:42:59;18.70;95.10
53599;DHT22;39485;45.702;11.364;2023-03-23T13:51:21;18.70;94.30
53599;DHT22;39485;45.702;11.364;2023-03-23T13:53:49;18.60;94.30
53599;DHT22;39485;45.702;11.364;2023-03-23T13:56:22;18.60;94.40
53599;DHT22;39485;45.702;11.364;2023-03-23T13:59:28;18.50;94.50
53599;DHT22;39485;45.702;11.364;2023-03-23T14:01:55;18.50;94.10
53599;DHT22;39485;45.702;11.364;2023-03-23T14:04:23;18.50;94.40
53599;DHT22;39485;45.702;11.364;2023-03-23T14:06:57;18.60;95.40
53599;DHT22;39485;45.702;11.364;2023-03-23T14:09:37;18.70;94.40
53599;DHT22;39485;45.702;11.364;2023-03-23T14:12:15;18.70;94.00
53599;DHT22;39485;45.702;11.364;2023-03-23T14:14:45;18.80;94.00
53599;DHT22;39485;45.702;11.364;2023-03-23T14:17:21;18.90;94.30
53599;DHT22;39485;45.702;11.364;2023-03-23T14:19:54;19.00;93.90
53599;DHT22;39485;45.702;11.364;2023-03-23T14:22:32;19.10;93.40
53599;DHT22;39485;45.702;11.364;2023-03-23T14:25:09;19.20;93.00
53599;DHT22;39485;45.702;11.364;2023-03-23T14:27:36;19.30;93.20
53599;DHT22;39485;45.702;11.364;2023-03-23T14:30:16;19.40;93.00
53599;DHT22;39485;45.702;11.364;2023-03-23T14:32:42;19.50;92.60
53599;DHT22;39485;45.702;11.364;2023-03-23T14:35:34;19.50;91.60
53599;DHT22;39485;45.702;11.364;2023-03-23T14:38:00;19.50;91.30
53599;DHT22;39485;45.702;11.364;2023-03-23T14:40:29;19.50;91.10
53599;DHT22;39485;45.702;11.364;2023-03-23T14:42:55;19.50;90.70
53599;DHT22;39485;45.702;11.364;2023-03-23T14:45:23;19.40;90.40
53599;DHT22;39485;45.702;11.364;2023-03-23T14:50:36;19.30;90.20
53599;DHT22;39485;45.702;11.364;2023-03-23T14:53:19;19.30;90.70
53599;DHT22;39485;45.702;11.364;2023-03-23T14:55:47;19.30;90.80
53599;DHT22;39485;45.702;11.364;2023-03-23T14:58:15;19.30;90.90
53599;DHT22;39485;45.702;11.364;2023-03-23T15:00:46;19.30;90.90
53599;DHT22;39485;45.702;11.364;2023-03-23T15:03:15;19.30;90.70
53599;DHT22;39485;45.702;11.364;2023-03-23T15:05:45;19.30;90.70
53599;DHT22;39485;45.702;11.364;2023-03-23T15:08:19;19.20;90.70
53599;DHT22;39485;45.702;11.364;2023-03-23T15:11:06;19.30;90.40
53599;DHT22;39485;45.702;11.364;2023-03-23T15:13:34;19.20;90.60
53599;DHT22;39485;45.702;11.364;2023-03-23T15:16:30;19.20;90.50
53599;DHT22;39485;45.702;11.364;2023-03-23T15:19:05;19.30;90.40
53599;DHT22;39485;45.702;11.364;2023-03-23T15:21:34;19.20;90.60
53599;DHT22;39485;45.702;11.364;2023-03-23T15:24:00;19.20;90.30
53599;DHT22;39485;45.702;11.364;2023-03-23T15:26:30;19.30;90.40
53599;DHT22;39485;45.702;11.364;2023-03-23T15:29:12;19.20;90.30
53599;DHT22;39485;45.702;11.364;2023-03-23T15:31:41;19.20;90.20
53599;DHT22;39485;45.702;11.364;2023-03-23T15:34:13;19.10;90.10
53599;DHT22;39485;45.702;11.364;2023-03-23T15:36:40;19.10;90.10
53599;DHT22;39485;45.702;11.364;2023-03-23T15:39:08;19.10;90.00
53599;DHT22;39485;45.702;11.364;2023-03-23T15:41:46;19.10;90.40
53599;DHT22;39485;45.702;11.364;2023-03-23T15:44:21;19.00;90.30
53599;DHT22;39485;45.702;11.364;2023-03-23T15:46:49;19.00;90.10
53599;DHT22;39485;45.702;11.364;2023-03-23T15:49:16;19.00;90.20
53599;DHT22;39485;45.702;11.364;2023-03-23T15:51:42;19.00;90.50
53599;DHT22;39485;45.702;11.364;2023-03-23T15:54:14;19.00;90.40
53599;DHT22;39485;45.702;11.364;2023-03-23T15:56:40;18.90;90.60
53599;DHT22;39485;45.702;11.364;2023-03-23T15:59:07;19.00;90.30
53599;DHT22;39485;45.702;11.364;2023-03-23T16:01:33;18.90;90.50
53599;DHT22;39485;45.702;11.364;2023-03-23T16:04:09;18.90;90.70
53599;DHT22;39485;45.702;11.364;2023-03-23T16:06:36;18.90;90.80
53599;DHT22;39485;45.702;11.364;2023-03-23T16:09:03;18.90;90.80
53599;DHT22;39485;45.702;11.364;2023-03-23T16:11:30;18.90;90.90
53599;DHT22;39485;45.702;11.364;2023-03-23T16:13:57;18.80;91.00
53599;DHT22;39485;45.702;11.364;2023-03-23T16:18:58;18.70;91.40
53599;DHT22;39485;45.702;11.364;2023-03-23T16:21:23;18.60;91.80
53599;DHT22;39485;45.702;11.364;2023-03-23T16:23:49;18.60;92.00
53599;DHT22;39485;45.702;11.364;2023-03-23T16:26:15;18.50;92.10
53599;DHT22;39485;45.702;11.364;2023-03-23T16:28:42;18.50;92.10
53599;DHT22;39485;45.702;11.364;2023-03-23T16:31:08;18.40;92.30
53599;DHT22;39485;45.702;11.364;2023-03-23T16:33:34;18.40;92.40
53599;DHT22;39485;45.702;11.364;2023-03-23T16:36:00;18.30;92.60
53599;DHT22;39485;45.702;11.364;2023-03-23T16:38:25;18.20;92.80
53599;DHT22;39485;45.702;11.364;2023-03-23T16:40:51;18.20;93.10
53599;DHT22;39485;45.702;11.364;2023-03-23T16:43:17;18.10;93.20
53599;DHT22;39485;45.702;11.364;2023-03-23T16:45:44;18.00;93.40
53599;DHT22;39485;45.702;11.364;2023-03-23T16:48:12;18.00;93.60
53599;DHT22;39485;45.702;11.364;2023-03-23T16:50:38;17.90;93.90
53599;DHT22;39485;45.702;11.364;2023-03-23T16:53:06;17.80;94.20
53599;DHT22;39485;45.702;11.364;2023-03-23T16:55:32;17.70;94.50
53599;DHT22;39485;45.702;11.364;2023-03-23T16:57:58;17.60;94.90
53599;DHT22;39485;45.702;11.364;2023-03-23T17:00:24;17.60;95.30
53599;DHT22;39485;45.702;11.364;2023-03-23T17:02:52;17.50;95.70
53599;DHT22;39485;45.702;11.364;2023-03-23T17:05:19;17.40;96.10
53599;DHT22;39485;45.702;11.364;2023-03-23T17:07:45;17.30;96.50
53599;DHT22;39485;45.702;11.364;2023-03-23T17:10:12;17.20;97.10
53599;DHT22;39485;45.702;11.364;2023-03-23T17:12:39;17.20;97.80
53599;DHT22;39485;45.702;11.364;2023-03-23T17:15:06;17.00;98.70
53599;DHT22;39485;45.702;11.364;2023-03-23T17:17:32;17.00;99.90
53599;DHT22;39485;45.702;11.364;2023-03-23T17:19:58;16.90;99.90
53599;DHT22;39485;45.702;11.364;2023-03-23T17:22:24;16.80;99.90
53599;DHT22;39485;45.702;11.364;2023-03-23T17:24:50;16.70;99.90
53599;DHT22;39485;45.702;11.364;2023-03-23T17:27:18;16.60;99.90
53599;DHT22;39485;45.702;11.364;2023-03-23T17:29:44;16.50;99.90
53599;DHT22;39485;45.702;11.364;2023-03-23T17:32:11;16.40;99.90
53599;DHT22;39485;45.702;11.364;2023-03-23T17:34:37;16.30;99.90
53599;DHT22;39485;45.702;11.364;2023-03-23T17:37:03;16.20;99.90
53599;DHT22;39485;45.702;11.364;2023-03-23T17:39:29;16.10;99.90
53599;DHT22;39485;45.702;11.364;2023-03-23T17:41:56;16.10;99.90
53599;DHT22;39485;45.702;11.364;2023-03-23T17:44:22;16.00;99.90
53599;DHT22;39485;45.702;11.364;2023-03-23T17:50:48;15.80;99.90
53599;DHT22;39485;45.702;11.364;2023-03-23T17:53:25;15.70;99.90
53599;DHT22;39485;45.702;11.364;2023-03-23T17:55:56;15.60;99.90
53599;DHT22;39485;45.702;11.364;2023-03-23T18:18:46;15.10;99.90
53599;DHT22;39485;45.702;11.364;2023-03-23T18:21:20;15.00;99.90
53599;DHT22;39485;45.702;11.364;2023-03-23T18:24:12;15.00;99.90
53599;DHT22;39485;45.702;11.364;2023-03-23T18:26:38;14.90;99.90
53599;DHT22;39485;45.702;11.364;2023-03-23T18:29:04;14.80;99.90
53599;DHT22;39485;45.702;11.364;2023-03-23T18:31:30;14.80;99.90
53599;DHT22;39485;45.702;11.364;2023-03-23T18:33:57;14.70;99.90
53599;DHT22;39485;45.702;11.364;2023-03-23T18:36:25;14.70;99.90
53599;DHT22;39485;45.702;11.364;2023-03-23T18:38:54;14.70;99.90